sensor_id;sensor_type;location;lat;lon;timestamp;pressure;altitude;pressure_sealevel;temperature;humidity
33805;BME280;66088;52.622;13.306;2022-12-28T00:28:51;101122.94;;;4.49;74.04
33805;BME280;66088;52.622;13.306;2022-12-28T00:33:33;101180.47;;;4.84;74.36
33805;BME280;66088;52.622;13.306;2022-12-28T00:57:31;101175.31;;;4.84;74.30
33805;BME280;66088;52.622;13.306;2022-12-28T01:02:06;101205.19;;;5.16;74.52
33805;BME280;66088;52.622;13.306;2022-12-28T01:06:38;101348.06;;;5.89;74.53
33805;BME280;66088;52.622;13.306;2022-12-28T01:11:50;101243.75;;;5.38;74.74
33805;BME280;66088;52.622;13.306;2022-12-28T01:31:17;101118.13;;;4.88;74.46
33805;BME280;66088;52.622;13.306;2022-12-28T01:35:53;101121.88;;;5.03;74.66
33805;BME280;66088;52.622;13.306;2022-12-28T01:40:49;101519.47;;;7.46;74.81
33805;BME280;66088;52.622;13.306;2022-12-28T01:45:46;101099.00;;;4.96;74.48
33805;BME280;66088;52.622;13.306;2022-12-28T01:50:36;101091.41;;;5.10;74.42
33805;BME280;66088;52.622;13.306;2022-12-28T01:55:34;101244.84;;;5.99;74.60
33805;BME280;66088;52.622;13.306;2022-12-28T02:00:19;101169.50;;;5.68;74.42
33805;BME280;66088;52.622;13.306;2022-12-28T02:05:11;101360.28;;;6.87;74.70
33805;BME280;66088;52.622;13.306;2022-12-28T02:09:44;101042.38;;;5.08;74.40
33805;BME280;66088;52.622;13.306;2022-12-28T02:14:21;101112.91;;;5.58;74.47
33805;BME280;66088;52.622;13.306;2022-12-28T02:18:55;101202.66;;;6.11;74.54
33805;BME280;66088;52.622;13.306;2022-12-28T02:23:49;101014.94;;;5.08;74.29
33805;BME280;66088;52.622;13.306;2022-12-28T02:29:04;101344.28;;;7.16;74.56
33805;BME280;66088;52.622;13.306;2022-12-28T02:34:15;101041.22;;;5.40;74.36
33805;BME280;66088;52.622;13.306;2022-12-28T02:39:04;100901.13;;;4.65;74.20
33805;BME280;66088;52.622;13.306;2022-12-28T02:43:58;101137.16;;;6.09;74.23
33805;BME280;66088;52.622;13.306;2022-12-28T02:48:38;100997.78;;;5.33;74.14
33805;BME280;66088;52.622;13.306;2022-12-28T02:58:29;101139.56;;;6.31;74.04
33805;BME280;66088;52.622;13.306;2022-12-28T03:08:28;101058.59;;;6.04;73.81
33805;BME280;66088;52.622;13.306;2022-12-28T03:13:12;101113.22;;;6.35;73.69
33805;BME280;66088;52.622;13.306;2022-12-28T03:17:42;101057.97;;;6.20;73.72
33805;BME280;66088;52.622;13.306;2022-12-28T03:22:16;101085.97;;;6.52;73.65
33805;BME280;66088;52.622;13.306;2022-12-28T03:31:48;101140.16;;;6.78;73.50
33805;BME280;66088;52.622;13.306;2022-12-28T03:36:43;101166.63;;;7.00;73.65
33805;BME280;66088;52.622;13.306;2022-12-28T03:41:47;100867.88;;;5.29;73.27
33805;BME280;66088;52.622;13.306;2022-12-28T03:46:40;101099.03;;;6.81;73.34
33805;BME280;66088;52.622;13.306;2022-12-28T03:51:06;100924.09;;;5.86;73.27
33805;BME280;66088;52.622;13.306;2022-12-28T03:55:26;100988.63;;;6.24;73.31
33805;BME280;66088;52.622;13.306;2022-12-28T03:59:49;101194.25;;;7.40;73.36
33805;BME280;66088;52.622;13.306;2022-12-28T04:04:12;101008.28;;;6.36;73.05
33805;BME280;66088;52.622;13.306;2022-12-28T04:08:46;101160.13;;;7.32;73.31
33805;BME280;66088;52.622;13.306;2022-12-28T04:13:08;101003.44;;;6.40;73.04
33805;BME280;66088;52.622;13.306;2022-12-28T04:17:29;100939.66;;;6.12;72.99
33805;BME280;66088;52.622;13.306;2022-12-28T04:21:50;101056.25;;;6.84;73.07
33805;BME280;66088;52.622;13.306;2022-12-28T04:26:30;100928.69;;;6.15;73.13
33805;BME280;66088;52.622;13.306;2022-12-28T04:30:56;100807.69;;;5.41;72.97
33805;BME280;66088;52.622;13.306;2022-12-28T04:35:21;101138.47;;;7.30;73.17
33805;BME280;66088;52.622;13.306;2022-12-28T04:39:42;101204.28;;;7.76;73.25
33805;BME280;66088;52.622;13.306;2022-12-28T04:44:14;100969.31;;;6.44;73.09
33805;BME280;66088;52.622;13.306;2022-12-28T04:48:34;100988.06;;;6.55;72.84
33805;BME280;66088;52.622;13.306;2022-12-28T04:52:56;101084.69;;;7.25;72.92
33805;BME280;66088;52.622;13.306;2022-12-28T04:57:20;101030.13;;;6.93;72.88
33805;BME280;66088;52.622;13.306;2022-12-28T05:01:43;101081.72;;;7.05;72.84
33805;BME280;66088;52.622;13.306;2022-12-28T05:06:06;100724.63;;;5.06;72.55
33805;BME280;66088;52.622;13.306;2022-12-28T05:10:26;101088.56;;;7.18;72.69
33805;BME280;66088;52.622;13.306;2022-12-28T05:14:47;100800.66;;;5.51;72.49
33805;BME280;66088;52.622;13.306;2022-12-28T05:19:14;101159.88;;;7.68;72.75
33805;BME280;66088;52.622;13.306;2022-12-28T05:23:37;100959.00;;;6.44;72.47
33805;BME280;66088;52.622;13.306;2022-12-28T05:27:57;100988.69;;;6.65;72.43
33805;BME280;66088;52.622;13.306;2022-12-28T05:32:22;101150.19;;;7.65;72.42
33805;BME280;66088;52.622;13.306;2022-12-28T05:36:55;101151.50;;;7.59;72.52
33805;BME280;66088;52.622;13.306;2022-12-28T05:41:19;101044.84;;;7.07;72.31
33805;BME280;66088;52.622;13.306;2022-12-28T05:45:44;100779.78;;;5.60;72.20
33805;BME280;66088;52.622;13.306;2022-12-28T05:50:05;100882.34;;;6.17;72.29
33805;BME280;66088;52.622;13.306;2022-12-28T05:54:45;101104.88;;;7.57;72.44
33805;BME280;66088;52.622;13.306;2022-12-28T05:59:10;101072.56;;;7.37;72.33
33805;BME280;66088;52.622;13.306;2022-12-28T06:03:30;101074.72;;;7.44;72.27
33805;BME280;66088;52.622;13.306;2022-12-28T06:07:50;101044.06;;;7.22;72.15
33805;BME280;66088;52.622;13.306;2022-12-28T06:12:13;101082.81;;;7.49;72.00
33805;BME280;66088;52.622;13.306;2022-12-28T06:16:34;101083.91;;;7.52;72.02
33805;BME280;66088;52.622;13.306;2022-12-28T06:21:00;100972.03;;;7.00;71.84
33805;BME280;66088;52.622;13.306;2022-12-28T06:25:27;101061.22;;;7.48;72.17
33805;BME280;66088;52.622;13.306;2022-12-28T06:29:55;100947.41;;;6.91;72.13
33805;BME280;66088;52.622;13.306;2022-12-28T06:34:19;101043.91;;;7.47;72.00
33805;BME280;66088;52.622;13.306;2022-12-28T06:38:44;100938.94;;;6.81;71.81
33805;BME280;66088;52.622;13.306;2022-12-28T06:43:04;101042.91;;;7.45;71.95
33805;BME280;66088;52.622;13.306;2022-12-28T06:47:29;100942.03;;;6.88;72.18
33805;BME280;66088;52.622;13.306;2022-12-28T06:51:53;101006.75;;;7.32;72.17
33805;BME280;66088;52.622;13.306;2022-12-28T06:56:20;101002.00;;;7.25;72.11
33805;BME280;66088;52.622;13.306;2022-12-28T07:00:43;100994.66;;;7.31;72.01
33805;BME280;66088;52.622;13.306;2022-12-28T07:05:12;101005.78;;;7.43;72.08
33805;BME280;66088;52.622;13.306;2022-12-28T07:09:40;100995.44;;;7.43;72.06
33805;BME280;66088;52.622;13.306;2022-12-28T07:14:07;100900.94;;;6.78;72.14
33805;BME280;66088;52.622;13.306;2022-12-28T07:18:29;100924.66;;;6.99;72.06
33805;BME280;66088;52.622;13.306;2022-12-28T07:22:59;100867.88;;;6.72;72.34
33805;BME280;66088;52.622;13.306;2022-12-28T07:27:19;100815.97;;;6.41;72.42
33805;BME280;66088;52.622;13.306;2022-12-28T07:31:39;100985.88;;;7.42;72.38
33805;BME280;66088;52.622;13.306;2022-12-28T07:36:01;100874.69;;;6.85;72.41
33805;BME280;66088;52.622;13.306;2022-12-28T07:40:25;100894.13;;;6.94;72.39
33805;BME280;66088;52.622;13.306;2022-12-28T07:44:44;100824.16;;;6.62;72.19
33805;BME280;66088;52.622;13.306;2022-12-28T07:49:07;100923.59;;;7.24;72.47
33805;BME280;66088;52.622;13.306;2022-12-28T07:53:28;100849.28;;;6.78;72.32
33805;BME280;66088;52.622;13.306;2022-12-28T07:58:22;100868.13;;;6.90;72.48
33805;BME280;66088;52.622;13.306;2022-12-28T08:02:57;100597.78;;;5.35;72.30
33805;BME280;66088;52.622;13.306;2022-12-28T10:50:03;100377.81;;;5.90;75.28
33805;BME280;66088;52.622;13.306;2022-12-28T10:54:41;100736.19;;;8.06;75.60
33805;BME280;66088;52.622;13.306;2022-12-28T10:59:35;100440.03;;;6.40;75.47
33805;BME280;66088;52.622;13.306;2022-12-28T11:04:09;100379.38;;;6.02;75.21
33805;BME280;66088;52.622;13.306;2022-12-28T11:08:39;100585.28;;;7.42;75.38
33805;BME280;66088;52.622;13.306;2022-12-28T11:13:25;100519.78;;;6.95;75.74
33805;BME280;66088;52.622;13.306;2022-12-28T11:17:53;100655.50;;;7.81;75.68
33805;BME280;66088;52.622;13.306;2022-12-28T11:22:24;100659.13;;;8.00;75.92
33805;BME280;66088;52.622;13.306;2022-12-28T11:26:51;100712.16;;;8.40;75.95
33805;BME280;66088;52.622;13.306;2022-12-28T11:31:33;100740.78;;;8.58;75.84
33805;BME280;66088;52.622;13.306;2022-12-28T11:36:28;100727.84;;;8.58;75.87
33805;BME280;66088;52.622;13.306;2022-12-28T11:40:59;100621.22;;;8.00;75.96
33805;BME280;66088;52.622;13.306;2022-12-28T11:50:47;100722.63;;;8.73;76.03
33805;BME280;66088;52.622;13.306;2022-12-28T11:55:41;100702.94;;;8.76;76.18
33805;BME280;66088;52.622;13.306;2022-12-28T12:04:52;100669.28;;;8.76;76.20
33805;BME280;66088;52.622;13.306;2022-12-28T12:09:39;100623.47;;;8.42;76.44
33805;BME280;66088;52.622;13.306;2022-12-28T12:14:01;100602.88;;;8.45;76.53
33805;BME280;66088;52.622;13.306;2022-12-28T12:18:24;100608.84;;;8.59;76.73
33805;BME280;66088;52.622;13.306;2022-12-28T12:22:48;100586.91;;;8.53;76.63
33805;BME280;66088;52.622;13.306;2022-12-28T12:27:14;100652.97;;;8.96;77.02
33805;BME280;66088;52.622;13.306;2022-12-28T12:31:40;100610.00;;;8.83;76.87
33805;BME280;66088;52.622;13.306;2022-12-28T12:36:11;100639.63;;;9.04;76.98
33805;BME280;66088;52.622;13.306;2022-12-28T12:40:59;100655.44;;;9.27;77.07
33805;BME280;66088;52.622;13.306;2022-12-28T12:45:31;100660.69;;;9.29;77.17
33805;BME280;66088;52.622;13.306;2022-12-28T12:50:16;100605.84;;;9.03;77.00
33805;BME280;66088;52.622;13.306;2022-12-28T12:54:51;100672.63;;;9.43;77.25
33805;BME280;66088;52.622;13.306;2022-12-28T12:59:30;100659.88;;;9.48;77.03
33805;BME280;66088;52.622;13.306;2022-12-28T13:04:02;100637.06;;;9.41;77.16
33805;BME280;66088;52.622;13.306;2022-12-28T13:08:25;100654.34;;;9.58;77.31
33805;BME280;66088;52.622;13.306;2022-12-28T13:12:46;100647.69;;;9.63;77.39
33805;BME280;66088;52.622;13.306;2022-12-28T13:21:23;100328.16;;;7.85;77.17
33805;BME280;66088;52.622;13.306;2022-12-28T13:25:57;100348.88;;;8.03;77.12
33805;BME280;66088;52.622;13.306;2022-12-28T13:30:55;100260.28;;;7.55;77.17
33805;BME280;66088;52.622;13.306;2022-12-28T13:35:41;100458.59;;;8.76;77.42
33805;BME280;66088;52.622;13.306;2022-12-28T13:40:14;100640.47;;;9.76;78.64
33805;BME280;66088;52.622;13.306;2022-12-28T13:44:46;100641.38;;;9.76;79.34
33805;BME280;66088;52.622;13.306;2022-12-28T13:50:11;100638.47;;;9.88;79.72
33805;BME280;66088;52.622;13.306;2022-12-28T13:54:48;100563.28;;;9.52;79.93
33805;BME280;66088;52.622;13.306;2022-12-28T13:59:14;100379.28;;;8.60;79.67
33805;BME280;66088;52.622;13.306;2022-12-28T14:03:46;100612.84;;;10.14;79.58
33805;BME280;66088;52.622;13.306;2022-12-28T14:08:07;100577.59;;;9.99;79.26
33805;BME280;66088;52.622;13.306;2022-12-28T14:12:28;100639.41;;;10.46;78.97
33805;BME280;66088;52.622;13.306;2022-12-28T14:16:50;100656.63;;;10.64;78.87
33805;BME280;66088;52.622;13.306;2022-12-28T14:21:10;100652.66;;;10.72;78.67
33805;BME280;66088;52.622;13.306;2022-12-28T14:25:40;100649.53;;;10.79;78.65
33805;BME280;66088;52.622;13.306;2022-12-28T14:34:59;100647.47;;;10.91;78.13
33805;BME280;66088;52.622;13.306;2022-12-28T14:39:32;100632.63;;;10.89;78.35
33805;BME280;66088;52.622;13.306;2022-12-28T14:43:56;100646.97;;;11.00;77.78
33805;BME280;66088;52.622;13.306;2022-12-28T14:48:36;100644.56;;;11.05;78.06
33805;BME280;66088;52.622;13.306;2022-12-28T14:53:21;100609.03;;;10.84;77.73
33805;BME280;66088;52.622;13.306;2022-12-28T14:58:11;100614.38;;;10.87;77.52
33805;BME280;66088;52.622;13.306;2022-12-28T15:02:43;100561.16;;;10.58;77.42
33805;BME280;66088;52.622;13.306;2022-12-28T15:07:05;100661.38;;;11.13;77.41
33805;BME280;66088;52.622;13.306;2022-12-28T15:22:00;100656.44;;;11.19;77.87
33805;BME280;66088;52.622;13.306;2022-12-28T15:26:23;100650.47;;;11.22;77.47
33805;BME280;66088;52.622;13.306;2022-12-28T15:31:24;100595.53;;;10.93;77.74
33805;BME280;66088;52.622;13.306;2022-12-28T15:35:50;100648.88;;;11.26;77.64
33805;BME280;66088;52.622;13.306;2022-12-28T15:50:35;100641.09;;;11.26;77.55
33805;BME280;66088;52.622;13.306;2022-12-28T15:55:31;100650.16;;;11.35;77.53
33805;BME280;66088;52.622;13.306;2022-12-28T16:00:11;100643.31;;;11.37;77.39
33805;BME280;66088;52.622;13.306;2022-12-28T16:04:55;100636.47;;;11.40;77.49
33805;BME280;66088;52.622;13.306;2022-12-28T16:34:28;100615.41;;;11.33;77.02
33805;BME280;66088;52.622;13.306;2022-12-28T16:39:54;100632.19;;;11.42;77.08
33805;BME280;66088;52.622;13.306;2022-12-28T16:44:40;100628.72;;;11.41;77.00
33805;BME280;66088;52.622;13.306;2022-12-28T16:54:32;100616.59;;;11.42;76.77
33805;BME280;66088;52.622;13.306;2022-12-28T16:59:28;100614.91;;;11.42;76.87
33805;BME280;66088;52.622;13.306;2022-12-28T17:19:34;100581.22;;;11.24;76.94
33805;BME280;66088;52.622;13.306;2022-12-28T17:29:16;100601.72;;;11.37;76.62
33805;BME280;66088;52.622;13.306;2022-12-28T17:33:45;100599.03;;;11.36;76.53
33805;BME280;66088;52.622;13.306;2022-12-28T17:43:09;100595.88;;;11.43;76.31
33805;BME280;66088;52.622;13.306;2022-12-28T17:47:29;100510.69;;;10.94;76.15
33805;BME280;66088;52.622;13.306;2022-12-28T17:51:49;100540.09;;;11.14;76.06
33805;BME280;66088;52.622;13.306;2022-12-28T17:56:11;100586.59;;;11.50;76.29
33805;BME280;66088;52.622;13.306;2022-12-28T18:00:34;100579.53;;;11.47;75.96
33805;BME280;66088;52.622;13.306;2022-12-28T18:04:54;100584.06;;;11.51;76.18
33805;BME280;66088;52.622;13.306;2022-12-28T18:09:35;100550.41;;;11.33;76.24
33805;BME280;66088;52.622;13.306;2022-12-28T18:13:55;100553.94;;;11.35;76.02
33805;BME280;66088;52.622;13.306;2022-12-28T18:18:19;100570.00;;;11.46;76.29
33805;BME280;66088;52.622;13.306;2022-12-28T18:22:39;100568.44;;;11.51;75.88
33805;BME280;66088;52.622;13.306;2022-12-28T18:27:00;100457.69;;;10.90;75.87
33805;BME280;66088;52.622;13.306;2022-12-28T18:31:20;100389.25;;;10.45;76.04
33805;BME280;66088;52.622;13.306;2022-12-28T18:35:43;100547.28;;;11.42;75.94
33805;BME280;66088;52.622;13.306;2022-12-28T18:45:00;100553.53;;;11.47;75.97
33805;BME280;66088;52.622;13.306;2022-12-28T18:49:20;100466.81;;;11.01;75.95
33805;BME280;66088;52.622;13.306;2022-12-28T18:53:43;100511.25;;;11.30;75.96
33805;BME280;66088;52.622;13.306;2022-12-28T18:58:03;100472.94;;;11.03;75.81
33805;BME280;66088;52.622;13.306;2022-12-28T19:06:48;100571.31;;;11.58;75.80
33805;BME280;66088;52.622;13.306;2022-12-28T19:11:12;100448.97;;;10.88;75.70
33805;BME280;66088;52.622;13.306;2022-12-28T19:15:33;100552.00;;;11.52;75.42
33805;BME280;66088;52.622;13.306;2022-12-28T19:19:52;100507.66;;;11.27;75.50
33805;BME280;66088;52.622;13.306;2022-12-28T19:24:14;100555.63;;;11.56;75.47
33805;BME280;66088;52.622;13.306;2022-12-28T19:28:37;100424.53;;;10.84;75.38
33805;BME280;66088;52.622;13.306;2022-12-28T19:32:57;100553.00;;;11.56;75.33
33805;BME280;66088;52.622;13.306;2022-12-28T19:37:16;100449.13;;;10.93;75.42
33805;BME280;66088;52.622;13.306;2022-12-28T19:41:36;100530.03;;;11.44;75.57
33805;BME280;66088;52.622;13.306;2022-12-28T19:46:07;100475.75;;;11.08;75.70
33805;BME280;66088;52.622;13.306;2022-12-28T19:50:28;100508.50;;;11.48;75.36
33805;BME280;66088;52.622;13.306;2022-12-28T19:54:48;100431.00;;;11.17;75.36
33805;BME280;66088;52.622;13.306;2022-12-28T19:59:07;100469.44;;;11.47;75.25
